Time;durP1;ratioP1;P1;durP2;ratioP2;P2;SDS_P1;SDS_P2;PMS_P1;PMS_P2;Temp;Humidity;BMP_temperature;BMP_pressure;BME280_temperature;BME280_humidity;BME280_pressure;Samples;Min_cycle;Max_cycle;Signal;HPM_P1;HPM_P2
2023/07/13 00:01:49;;;;;;;9.18;3.00;;;;;;;;;;5031675;28;20100;-77
2023/07/13 00:04:16;;;;;;;5.53;3.03;;;;;;;;;;5028993;28;20041;-76
2023/07/13 00:06:44;;;;;;;3.90;2.90;;;;;;;;;;5043466;28;20022;-76
2023/07/13 00:09:11;;;;;;;4.97;3.53;;;;;;;;;;5047174;28;20163;-76
2023/07/13 00:11:37;;;;;;;6.72;2.80;;;;;;;;;;5055612;28;20044;-76
2023/07/13 00:14:03;;;;;;;8.25;2.90;;;;;;;;;;5049697;28;20013;-76
2023/07/13 00:16:29;;;;;;;4.03;2.60;;;;;;;;;;5051056;28;20088;-77
2023/07/13 00:18:55;;;;;;;4.70;2.42;;;;;;;;;;5034942;28;20026;-76
2023/07/13 00:21:21;;;;;;;3.88;2.78;;;;;;;;;;5040121;28;20032;-77
2023/07/13 00:23:48;;;;;;;4.55;3.38;;;;;;;;;;5028563;28;20029;-76
2023/07/13 00:26:14;;;;;;;4.18;2.90;;;;;;;;;;5030550;28;20034;-76
2023/07/13 00:28:41;;;;;;;5.13;2.70;;;;;;;;;;5027645;28;20037;-77
2023/07/13 00:31:08;;;;;;;4.78;2.50;;;;;;;;;;5038691;28;20017;-77
2023/07/13 00:33:34;;;;;;;3.80;2.90;;;;;;;;;;5027321;28;20025;-76
2023/07/13 00:36:01;;;;;;;4.97;3.45;;;;;;;;;;5037399;28;20025;-77
2023/07/13 00:38:27;;;;;;;5.97;2.55;;;;;;;;;;5027340;28;20116;-76
2023/07/13 00:40:54;;;;;;;5.85;3.08;;;;;;;;;;5033161;28;20027;-77
2023/07/13 00:43:21;;;;;;;6.82;2.58;;;;;;;;;;5029085;28;20093;-76
2023/07/13 00:45:48;;;;;;;6.00;3.08;;;;;;;;;;5031373;28;20061;-77
2023/07/13 00:48:26;;;;;;;8.00;3.20;;;;;;;;;;5051715;28;20033;-77
2023/07/13 00:50:54;;;;;;;4.20;3.20;;;;;;;;;;5034233;28;20033;-75
2023/07/13 00:53:20;;;;;;;10.18;2.90;;;;;;;;;;5029781;28;20581;-76
2023/07/13 00:55:47;;;;;;;7.43;3.15;;;;;;;;;;5030310;28;20038;-76
2023/07/13 00:58:13;;;;;;;10.15;3.75;;;;;;;;;;5022371;28;20563;-77
2023/07/13 01:00:40;;;;;;;6.75;2.85;;;;;;;;;;5028663;28;20037;-77
2023/07/13 01:03:07;;;;;;;4.97;3.22;;;;;;;;;;5026560;28;20018;-77
2023/07/13 01:05:34;;;;;;;4.65;2.63;;;;;;;;;;5032069;28;20076;-76
2023/07/13 01:08:03;;;;;;;8.32;3.33;;;;;;;;;;5031511;28;20025;-76
2023/07/13 01:10:38;;;;;;;5.35;2.67;;;;;;;;;;5032975;28;20125;-77
2023/07/13 01:13:07;;;;;;;7.13;3.38;;;;;;;;;;5035024;28;20585;-76
2023/07/13 01:15:39;;;;;;;4.15;3.00;;;;;;;;;;5027869;28;20044;-76
2023/07/13 01:18:11;;;;;;;7.55;3.20;;;;;;;;;;5034450;28;20017;-77
2023/07/13 01:20:38;;;;;;;6.20;2.65;;;;;;;;;;5033126;28;20033;-77
2023/07/13 01:23:09;;;;;;;7.75;3.13;;;;;;;;;;5031155;28;20021;-77
2023/07/13 01:25:36;;;;;;;3.88;2.58;;;;;;;;;;5025514;28;20036;-77
2023/07/13 01:28:03;;;;;;;4.20;2.75;;;;;;;;;;5020406;28;20037;-77
2023/07/13 01:30:29;;;;;;;4.70;2.65;;;;;;;;;;5022680;28;20037;-76
2023/07/13 01:32:55;;;;;;;9.90;3.08;;;;;;;;;;5024477;28;20025;-76
2023/07/13 01:35:21;;;;;;;7.05;2.97;;;;;;;;;;5024384;28;20087;-75
2023/07/13 01:37:48;;;;;;;8.15;3.60;;;;;;;;;;5032093;28;20100;-76
2023/07/13 01:40:14;;;;;;;6.70;2.83;;;;;;;;;;5023893;28;20098;-76
2023/07/13 01:42:40;;;;;;;4.47;2.85;;;;;;;;;;5025223;28;20101;-76
2023/07/13 01:45:07;;;;;;;7.38;3.63;;;;;;;;;;5024983;28;20052;-76
2023/07/13 01:47:33;;;;;;;7.68;3.30;;;;;;;;;;5022557;28;20500;-76
2023/07/13 01:49:59;;;;;;;10.10;3.08;;;;;;;;;;5025718;28;20116;-77
2023/07/13 01:52:25;;;;;;;3.72;3.17;;;;;;;;;;5024434;28;20026;-76
2023/07/13 01:54:51;;;;;;;7.85;3.28;;;;;;;;;;5025580;28;20029;-77
2023/07/13 01:57:17;;;;;;;6.57;2.78;;;;;;;;;;5022128;28;20096;-77
2023/07/13 01:59:43;;;;;;;4.85;2.83;;;;;;;;;;5023120;28;20155;-75
2023/07/13 02:02:09;;;;;;;5.32;3.00;;;;;;;;;;5029036;28;20057;-76
2023/07/13 02:04:35;;;;;;;8.60;3.45;;;;;;;;;;5026115;28;20033;-76
2023/07/13 02:07:01;;;;;;;6.40;3.30;;;;;;;;;;5027657;28;20034;-75
2023/07/13 02:09:28;;;;;;;4.13;2.90;;;;;;;;;;5032287;28;20033;-76
2023/07/13 02:11:54;;;;;;;6.00;2.83;;;;;;;;;;5021823;28;20025;-76
2023/07/13 02:14:20;;;;;;;5.60;2.75;;;;;;;;;;5020741;28;20108;-76
2023/07/13 02:16:48;;;;;;;3.95;3.08;;;;;;;;;;5016182;28;20526;-76
2023/07/13 02:19:14;;;;;;;4.90;2.78;;;;;;;;;;5030074;28;20125;-76
2023/07/13 02:21:40;;;;;;;5.03;3.38;;;;;;;;;;5026281;28;20085;-77
2023/07/13 02:24:07;;;;;;;4.35;2.40;;;;;;;;;;5024625;28;20026;-76
2023/07/13 02:26:33;;;;;;;4.88;3.13;;;;;;;;;;5023776;28;20036;-77
2023/07/13 02:28:59;;;;;;;4.90;2.75;;;;;;;;;;5023347;28;20036;-76
2023/07/13 02:31:25;;;;;;;5.65;3.20;;;;;;;;;;5028039;28;20463;-76
2023/07/13 02:33:51;;;;;;;4.80;3.22;;;;;;;;;;5024993;28;20100;-76
2023/07/13 02:36:18;;;;;;;5.43;2.90;;;;;;;;;;5020652;28;20430;-76
2023/07/13 02:38:44;;;;;;;5.07;2.80;;;;;;;;;;5023646;28;20041;-76
2023/07/13 02:41:12;;;;;;;6.53;2.67;;;;;;;;;;5025359;28;20048;-76
2023/07/13 02:43:38;;;;;;;5.70;2.95;;;;;;;;;;5034367;28;20478;-77
2023/07/13 02:46:07;;;;;;;4.93;2.80;;;;;;;;;;5040550;28;20107;-76
2023/07/13 02:48:36;;;;;;;6.97;3.30;;;;;;;;;;5033874;28;20025;-76
2023/07/13 02:51:02;;;;;;;6.03;3.83;;;;;;;;;;5028603;28;20056;-76
2023/07/13 02:53:28;;;;;;;4.93;2.67;;;;;;;;;;5037833;28;20030;-75
2023/07/13 02:55:55;;;;;;;11.45;4.55;;;;;;;;;;5027347;28;20034;-76
2023/07/13 02:58:21;;;;;;;13.82;4.15;;;;;;;;;;5034769;28;20018;-76
2023/07/13 03:00:48;;;;;;;4.78;3.45;;;;;;;;;;5038823;28;20026;-76
2023/07/13 03:03:15;;;;;;;10.38;3.03;;;;;;;;;;5022157;28;20534;-75
2023/07/13 03:05:42;;;;;;;8.50;3.28;;;;;;;;;;5052787;28;20238;-76
2023/07/13 03:08:08;;;;;;;6.15;2.88;;;;;;;;;;5030731;28;20040;-76
2023/07/13 03:10:34;;;;;;;5.93;3.00;;;;;;;;;;5026899;28;20392;-76
2023/07/13 03:13:00;;;;;;;4.43;3.97;;;;;;;;;;5027502;28;20030;-76
2023/07/13 03:15:27;;;;;;;5.10;3.13;;;;;;;;;;5034931;28;20041;-76
2023/07/13 03:17:53;;;;;;;7.03;3.20;;;;;;;;;;5036664;28;20511;-77
2023/07/13 03:20:20;;;;;;;9.55;3.10;;;;;;;;;;5050916;28;20034;-77
2023/07/13 03:22:46;;;;;;;5.88;3.38;;;;;;;;;;5052164;28;20472;-76
2023/07/13 03:25:13;;;;;;;6.57;3.05;;;;;;;;;;5040539;28;20080;-76
2023/07/13 03:27:39;;;;;;;5.47;2.97;;;;;;;;;;5040785;28;20067;-75
2023/07/13 03:30:06;;;;;;;7.85;3.40;;;;;;;;;;5041076;28;20037;-76
2023/07/13 03:32:32;;;;;;;7.20;2.83;;;;;;;;;;5038223;28;20021;-76
2023/07/13 03:34:58;;;;;;;8.10;3.10;;;;;;;;;;5036194;28;20032;-74
2023/07/13 03:37:25;;;;;;;9.15;3.47;;;;;;;;;;5030540;28;20025;-76
2023/07/13 03:39:51;;;;;;;6.18;3.05;;;;;;;;;;5028327;28;20025;-76
2023/07/13 03:42:17;;;;;;;9.95;3.35;;;;;;;;;;5033575;28;20033;-76
2023/07/13 03:44:50;;;;;;;6.80;3.50;;;;;;;;;;5031817;28;20033;-77
2023/07/13 03:47:16;;;;;;;10.30;3.72;;;;;;;;;;5034253;28;20075;-76
2023/07/13 03:49:42;;;;;;;7.35;3.20;;;;;;;;;;5029308;28;20048;-76
2023/07/13 03:52:08;;;;;;;4.95;2.95;;;;;;;;;;5023807;28;20025;-76
2023/07/13 03:54:35;;;;;;;5.60;2.83;;;;;;;;;;5043342;28;20083;-76
2023/07/13 03:57:01;;;;;;;4.00;3.13;;;;;;;;;;5020620;28;20025;-76
2023/07/13 03:59:27;;;;;;;6.30;3.50;;;;;;;;;;5027278;28;20041;-75
2023/07/13 04:01:55;;;;;;;6.97;3.03;;;;;;;;;;5025618;28;20030;-76
2023/07/13 04:04:21;;;;;;;7.35;3.20;;;;;;;;;;5025680;28;20034;-76
2023/07/13 04:06:47;;;;;;;6.35;3.45;;;;;;;;;;5030576;28;20049;-76
2023/07/13 04:09:13;;;;;;;7.88;3.47;;;;;;;;;;5020419;28;20490;-75
2023/07/13 04:11:39;;;;;;;7.85;3.65;;;;;;;;;;5025766;28;20025;-76
2023/07/13 04:14:05;;;;;;;6.20;3.05;;;;;;;;;;5022927;28;20026;-75
2023/07/13 04:16:32;;;;;;;8.23;3.60;;;;;;;;;;5039951;28;20030;-76
2023/07/13 04:19:01;;;;;;;7.25;3.30;;;;;;;;;;5025082;28;20020;-76
2023/07/13 04:21:28;;;;;;;10.98;3.75;;;;;;;;;;5020252;28;20044;-76
2023/07/13 04:23:54;;;;;;;10.27;4.32;;;;;;;;;;5030584;28;20053;-75
2023/07/13 04:26:20;;;;;;;5.85;3.13;;;;;;;;;;5031315;28;20043;-76
2023/07/13 04:28:48;;;;;;;9.07;3.42;;;;;;;;;;5028039;28;20053;-73
2023/07/13 04:31:15;;;;;;;6.78;3.28;;;;;;;;;;5036566;28;20045;-75
2023/07/13 04:33:42;;;;;;;6.13;3.33;;;;;;;;;;5029266;28;20400;-75
2023/07/13 04:36:09;;;;;;;4.40;2.85;;;;;;;;;;5034558;28;20022;-76
2023/07/13 04:38:35;;;;;;;8.27;3.30;;;;;;;;;;5033384;28;20033;-76
2023/07/13 04:41:03;;;;;;;6.90;3.05;;;;;;;;;;5031866;28;20029;-76
2023/07/13 04:43:30;;;;;;;6.30;3.50;;;;;;;;;;5020728;28;20076;-76
2023/07/13 04:45:56;;;;;;;4.57;3.47;;;;;;;;;;5025664;28;20030;-76
2023/07/13 04:48:23;;;;;;;6.60;3.90;;;;;;;;;;5025334;28;20037;-77
2023/07/13 04:50:54;;;;;;;6.65;3.00;;;;;;;;;;5032950;28;20025;-77
2023/07/13 04:53:20;;;;;;;5.75;3.85;;;;;;;;;;5027975;28;20032;-77
2023/07/13 04:55:47;;;;;;;6.95;3.08;;;;;;;;;;5024748;28;20383;-77
2023/07/13 04:58:13;;;;;;;8.23;4.05;;;;;;;;;;5020875;28;20377;-77
2023/07/13 05:00:39;;;;;;;7.60;3.55;;;;;;;;;;5027560;28;20059;-76
2023/07/13 05:03:06;;;;;;;8.25;3.33;;;;;;;;;;5029027;28;20029;-77
2023/07/13 05:05:32;;;;;;;8.55;3.13;;;;;;;;;;5024085;28;20133;-76
2023/07/13 05:07:58;;;;;;;7.97;3.70;;;;;;;;;;5026693;28;20037;-76
2023/07/13 05:10:24;;;;;;;6.07;3.03;;;;;;;;;;5037517;28;20029;-76
2023/07/13 05:12:51;;;;;;;8.32;2.95;;;;;;;;;;5032094;28;20039;-75
2023/07/13 05:15:20;;;;;;;5.68;2.78;;;;;;;;;;5015729;28;20025;-76
2023/07/13 05:17:47;;;;;;;6.93;3.13;;;;;;;;;;5027999;28;20111;-76
2023/07/13 05:20:14;;;;;;;6.78;3.00;;;;;;;;;;5022822;28;20072;-76
2023/07/13 05:22:40;;;;;;;4.28;2.95;;;;;;;;;;5024874;28;20033;-75
2023/07/13 05:25:07;;;;;;;6.32;2.90;;;;;;;;;;5030913;28;20044;-76
2023/07/13 05:27:34;;;;;;;6.65;3.22;;;;;;;;;;5022733;28;20176;-77
2023/07/13 05:30:00;;;;;;;8.32;3.80;;;;;;;;;;5022915;28;20442;-76
2023/07/13 05:32:26;;;;;;;7.35;2.97;;;;;;;;;;5021927;28;20033;-77
2023/07/13 05:34:53;;;;;;;6.72;2.95;;;;;;;;;;5037230;28;20432;-76
2023/07/13 05:37:19;;;;;;;7.22;3.88;;;;;;;;;;5026476;28;20025;-76
2023/07/13 05:39:45;;;;;;;8.68;3.10;;;;;;;;;;5036062;28;20021;-75
2023/07/13 05:42:11;;;;;;;9.40;3.53;;;;;;;;;;5026753;28;20071;-76
2023/07/13 05:44:37;;;;;;;4.60;3.10;;;;;;;;;;5032114;28;20536;-76
2023/07/13 05:47:03;;;;;;;7.80;3.25;;;;;;;;;;5027343;28;20034;-75
2023/07/13 05:49:30;;;;;;;6.53;2.83;;;;;;;;;;5023574;28;20117;-75
2023/07/13 05:51:56;;;;;;;6.20;3.42;;;;;;;;;;5036239;28;20053;-76
2023/07/13 05:54:22;;;;;;;7.38;3.10;;;;;;;;;;5035552;28;20029;-75
2023/07/13 05:56:49;;;;;;;6.13;3.10;;;;;;;;;;5023607;28;20022;-76
2023/07/13 05:59:15;;;;;;;13.27;4.07;;;;;;;;;;5026833;28;20026;-76
2023/07/13 06:01:41;;;;;;;6.40;3.25;;;;;;;;;;5027680;28;20021;-76
2023/07/13 06:04:08;;;;;;;7.72;2.90;;;;;;;;;;5031276;28;20037;-75
2023/07/13 06:06:34;;;;;;;5.25;2.80;;;;;;;;;;5029706;28;20036;-76
2023/07/13 06:09:00;;;;;;;9.25;2.88;;;;;;;;;;5025911;28;20319;-76
2023/07/13 06:11:29;;;;;;;5.72;3.00;;;;;;;;;;5028797;28;20309;-76
2023/07/13 06:13:56;;;;;;;4.75;3.10;;;;;;;;;;5028736;28;20047;-77
2023/07/13 06:16:23;;;;;;;10.02;3.13;;;;;;;;;;5022015;28;20029;-76
2023/07/13 06:18:49;;;;;;;6.80;3.55;;;;;;;;;;5039744;28;20033;-76
2023/07/13 06:21:19;;;;;;;7.50;3.08;;;;;;;;;;5023003;28;20091;-77
2023/07/13 06:23:47;;;;;;;6.40;3.00;;;;;;;;;;5030288;28;20025;-76
2023/07/13 06:26:13;;;;;;;6.82;2.90;;;;;;;;;;5028342;28;20049;-76
2023/07/13 06:28:40;;;;;;;6.60;3.60;;;;;;;;;;5034255;28;20033;-77
2023/07/13 06:31:10;;;;;;;4.80;3.47;;;;;;;;;;5042913;28;20060;-77
2023/07/13 06:33:37;;;;;;;6.13;3.40;;;;;;;;;;5038145;28;20136;-76
2023/07/13 06:36:04;;;;;;;7.40;2.67;;;;;;;;;;5044349;28;20116;-77
2023/07/13 06:38:30;;;;;;;6.05;3.33;;;;;;;;;;5058475;28;20104;-76
2023/07/13 06:40:57;;;;;;;8.95;3.28;;;;;;;;;;5044146;28;20022;-76
2023/07/13 06:43:24;;;;;;;4.93;2.70;;;;;;;;;;5038729;28;20093;-76
2023/07/13 06:45:51;;;;;;;6.10;3.08;;;;;;;;;;5030000;28;20031;-77
2023/07/13 06:48:18;;;;;;;5.40;2.97;;;;;;;;;;5033484;28;20034;-76
2023/07/13 06:50:44;;;;;;;5.07;3.17;;;;;;;;;;5028927;28;20035;-77
2023/07/13 06:53:11;;;;;;;8.30;2.80;;;;;;;;;;5030088;28;20103;-76
2023/07/13 06:55:37;;;;;;;4.00;3.08;;;;;;;;;;5032937;28;20059;-76
2023/07/13 06:58:03;;;;;;;8.98;3.08;;;;;;;;;;5031757;28;20090;-76
2023/07/13 07:00:30;;;;;;;8.55;3.00;;;;;;;;;;5029187;28;20062;-76
2023/07/13 07:02:56;;;;;;;5.50;3.15;;;;;;;;;;5021544;28;20511;-76
2023/07/13 07:05:22;;;;;;;7.68;3.00;;;;;;;;;;5028602;28;20095;-76
2023/07/13 07:07:49;;;;;;;4.47;3.15;;;;;;;;;;5036439;28;20033;-76
2023/07/13 07:10:15;;;;;;;5.25;3.20;;;;;;;;;;5033114;28;20402;-77
2023/07/13 07:12:41;;;;;;;7.90;3.58;;;;;;;;;;5032464;28;20102;-76
2023/07/13 07:15:07;;;;;;;8.82;2.97;;;;;;;;;;5025745;28;20104;-75
2023/07/13 07:17:33;;;;;;;8.23;3.25;;;;;;;;;;5021037;28;20029;-76
2023/07/13 07:19:59;;;;;;;7.03;3.78;;;;;;;;;;5014314;28;20515;-77
2023/07/13 07:22:27;;;;;;;5.97;3.08;;;;;;;;;;5020316;28;20029;-76
2023/07/13 07:24:54;;;;;;;4.60;3.13;;;;;;;;;;5024679;28;20118;-77
2023/07/13 07:27:21;;;;;;;3.65;2.95;;;;;;;;;;5043728;28;20109;-77
2023/07/13 07:29:47;;;;;;;6.40;3.53;;;;;;;;;;5028959;28;20115;-76
2023/07/13 07:32:13;;;;;;;4.32;3.03;;;;;;;;;;5035803;28;20415;-75
2023/07/13 07:34:40;;;;;;;7.38;2.60;;;;;;;;;;5021690;28;20026;-76
2023/07/13 07:37:06;;;;;;;3.78;2.47;;;;;;;;;;5031880;28;20021;-77
2023/07/13 07:39:32;;;;;;;4.70;3.03;;;;;;;;;;5033879;28;20045;-76
2023/07/13 07:41:58;;;;;;;4.25;2.67;;;;;;;;;;5030498;28;20518;-77
2023/07/13 07:44:26;;;;;;;4.18;2.90;;;;;;;;;;5024229;28;20029;-77
2023/07/13 07:46:52;;;;;;;8.10;2.72;;;;;;;;;;5026474;28;20045;-77
2023/07/13 07:49:19;;;;;;;5.53;2.53;;;;;;;;;;5026767;28;20041;-77
2023/07/13 07:51:45;;;;;;;4.75;2.50;;;;;;;;;;5017147;28;20030;-76
2023/07/13 07:54:11;;;;;;;4.32;2.60;;;;;;;;;;5024065;28;20021;-76
2023/07/13 07:56:37;;;;;;;3.70;2.85;;;;;;;;;;5018305;28;20029;-76
2023/07/13 07:59:03;;;;;;;5.53;3.42;;;;;;;;;;5023823;28;20112;-77
2023/07/13 08:01:30;;;;;;;5.72;2.90;;;;;;;;;;5022219;28;20120;-77
2023/07/13 08:03:56;;;;;;;3.80;3.33;;;;;;;;;;5029999;28;20067;-77
2023/07/13 08:06:22;;;;;;;3.08;2.78;;;;;;;;;;5023288;28;20033;-78
2023/07/13 08:08:49;;;;;;;6.68;3.03;;;;;;;;;;5025737;28;20187;-78
2023/07/13 08:11:15;;;;;;;5.00;2.75;;;;;;;;;;5019383;28;20200;-79
2023/07/13 08:13:41;;;;;;;3.65;2.85;;;;;;;;;;5030943;28;20025;-79
2023/07/13 08:16:07;;;;;;;4.45;2.53;;;;;;;;;;5042389;28;20072;-78
2023/07/13 08:18:33;;;;;;;3.75;2.70;;;;;;;;;;5022071;28;20033;-77
2023/07/13 08:21:03;;;;;;;3.85;2.83;;;;;;;;;;5029947;28;20029;-76
2023/07/13 08:23:29;;;;;;;4.18;2.60;;;;;;;;;;5025198;28;20491;-76
2023/07/13 08:25:56;;;;;;;3.38;2.63;;;;;;;;;;5026370;28;20907;-76
2023/07/13 08:28:23;;;;;;;5.80;2.85;;;;;;;;;;5028885;28;20741;-74
2023/07/13 08:30:49;;;;;;;4.75;2.80;;;;;;;;;;5036124;28;20033;-76
2023/07/13 08:33:19;;;;;;;4.47;2.85;;;;;;;;;;5028129;28;20093;-76
2023/07/13 08:35:48;;;;;;;3.22;2.70;;;;;;;;;;5022426;28;20029;-77
2023/07/13 08:38:14;;;;;;;5.25;2.83;;;;;;;;;;5023666;28;20117;-78
2023/07/13 08:40:42;;;;;;;3.47;2.25;;;;;;;;;;5025403;28;20025;-75
2023/07/13 08:43:12;;;;;;;4.05;2.50;;;;;;;;;;5026255;28;20036;-76
2023/07/13 08:45:43;;;;;;;2.90;2.20;;;;;;;;;;5042454;28;20029;-77
2023/07/13 08:48:12;;;;;;;4.90;2.40;;;;;;;;;;5024349;28;20463;-76
2023/07/13 08:50:50;;;;;;;3.20;2.83;;;;;;;;;;5026869;28;20030;-76
2023/07/13 08:53:17;;;;;;;2.90;2.20;;;;;;;;;;5023176;28;20551;-75
2023/07/13 08:55:44;;;;;;;2.35;2.10;;;;;;;;;;5022604;28;20022;-75
2023/07/13 08:58:11;;;;;;;2.83;2.20;;;;;;;;;;5021344;28;20128;-75
2023/07/13 09:00:58;;;;;;;2.30;2.00;;;;;;;;;;5021933;28;20036;-76
2023/07/13 09:03:25;;;;;;;2.40;2.20;;;;;;;;;;5022411;28;20480;-74
2023/07/13 09:05:55;;;;;;;3.47;2.20;;;;;;;;;;5025849;28;20049;-73
2023/07/13 09:08:27;;;;;;;2.78;2.38;;;;;;;;;;5021576;28;20562;-73
2023/07/13 09:10:58;;;;;;;2.80;2.22;;;;;;;;;;5018419;28;20037;-74
2023/07/13 09:13:33;;;;;;;3.28;2.50;;;;;;;;;;5021293;28;20496;-75
2023/07/13 09:16:00;;;;;;;4.10;2.47;;;;;;;;;;5023334;28;20022;-75
2023/07/13 09:18:33;;;;;;;3.53;2.50;;;;;;;;;;5020640;28;20429;-76
2023/07/13 09:21:03;;;;;;;2.78;2.20;;;;;;;;;;5023604;28;20402;-76
2023/07/13 09:23:30;;;;;;;2.95;2.25;;;;;;;;;;5019280;28;20511;-75
2023/07/13 09:26:17;;;;;;;3.20;2.45;;;;;;;;;;5023598;28;20040;-75
2023/07/13 09:28:44;;;;;;;4.72;2.33;;;;;;;;;;5022475;28;20060;-73
2023/07/13 09:31:21;;;;;;;4.65;2.15;;;;;;;;;;5023468;28;20025;-75
2023/07/13 09:33:48;;;;;;;2.90;2.45;;;;;;;;;;5028710;28;20029;-73
2023/07/13 09:36:28;;;;;;;3.38;2.30;;;;;;;;;;5022372;28;20029;-74
2023/07/13 09:39:35;;;;;;;3.00;2.40;;;;;;;;;;5029489;28;20028;-76
2023/07/13 09:42:01;;;;;;;;;;;;;;;;;;4975136;28;20029;-76
2023/07/13 09:44:38;;;;;;;3.38;2.20;;;;;;;;;;4976880;28;19937;-77
2023/07/13 09:47:04;;;;;;;3.03;1.95;;;;;;;;;;5000387;28;20045;-77
2023/07/13 09:49:34;;;;;;;3.45;2.20;;;;;;;;;;5042423;28;20151;-75
2023/07/13 09:52:02;;;;;;;3.35;2.42;;;;;;;;;;5044013;28;20032;-76
2023/07/13 09:54:29;;;;;;;2.20;2.00;;;;;;;;;;5036675;28;20083;-76
2023/07/13 09:56:56;;;;;;;2.63;2.10;;;;;;;;;;5040374;28;20030;-77
2023/07/13 09:59:23;;;;;;;3.80;2.28;;;;;;;;;;5038674;28;20164;-75
2023/07/13 10:01:50;;;;;;;2.75;1.90;;;;;;;;;;5034433;28;20006;-75
2023/07/13 10:04:20;;;;;;;3.85;2.28;;;;;;;;;;5037197;28;20099;-76
2023/07/13 10:06:46;;;;;;;3.33;2.33;;;;;;;;;;5035395;28;20112;-76
2023/07/13 10:09:19;;;;;;;2.78;2.20;;;;;;;;;;5026242;28;20026;-76
2023/07/13 10:11:45;;;;;;;5.45;2.55;;;;;;;;;;5027892;28;20091;-76
2023/07/13 10:14:20;;;;;;;3.10;2.33;;;;;;;;;;5027941;28;20021;-76
2023/07/13 10:16:47;;;;;;;4.72;2.10;;;;;;;;;;5030627;28;20041;-76
2023/07/13 10:19:24;;;;;;;3.63;2.00;;;;;;;;;;5031956;28;20029;-76
2023/07/13 10:21:54;;;;;;;3.85;2.20;;;;;;;;;;5037943;28;20532;-76
2023/07/13 10:24:22;;;;;;;2.60;2.10;;;;;;;;;;5025708;28;20044;-76
2023/07/13 10:27:02;;;;;;;3.00;2.20;;;;;;;;;;5022496;28;20021;-76
2023/07/13 10:29:30;;;;;;;3.83;2.45;;;;;;;;;;5029133;28;20021;-77
2023/07/13 10:31:57;;;;;;;3.45;2.17;;;;;;;;;;5020632;28;20389;-78
2023/07/13 10:34:23;;;;;;;3.17;2.30;;;;;;;;;;5017636;28;20120;-76
2023/07/13 10:36:49;;;;;;;3.25;2.03;;;;;;;;;;5024236;28;20026;-77
2023/07/13 10:39:23;;;;;;;2.30;2.10;;;;;;;;;;5025254;28;20037;-75
2023/07/13 10:41:53;;;;;;;3.13;1.90;;;;;;;;;;5031573;28;20373;-75
2023/07/13 10:44:21;;;;;;;2.47;2.10;;;;;;;;;;5032337;28;20065;-74
2023/07/13 10:46:48;;;;;;;4.78;2.20;;;;;;;;;;5022702;28;20021;-76
2023/07/13 10:49:15;;;;;;;3.10;2.35;;;;;;;;;;5020419;28;20028;-75
2023/07/13 10:51:41;;;;;;;2.65;2.20;;;;;;;;;;5027871;28;20033;-75
2023/07/13 10:54:10;;;;;;;2.45;2.10;;;;;;;;;;5026520;28;20032;-74
2023/07/13 10:56:37;;;;;;;3.40;2.20;;;;;;;;;;5016672;28;20052;-75
2023/07/13 10:59:27;;;;;;;2.67;1.90;;;;;;;;;;5026701;28;20025;-76
2023/07/13 11:01:56;;;;;;;4.45;2.40;;;;;;;;;;5018991;28;20495;-74
2023/07/13 11:04:25;;;;;;;3.45;2.00;;;;;;;;;;5027588;28;20049;-75
2023/07/13 11:06:52;;;;;;;2.88;2.28;;;;;;;;;;5025113;28;20132;-75
2023/07/13 11:09:18;;;;;;;3.13;2.00;;;;;;;;;;5023870;28;20044;-76
2023/07/13 11:11:44;;;;;;;2.08;1.88;;;;;;;;;;5033343;28;20687;-75
2023/07/13 11:14:38;;;;;;;6.05;2.50;;;;;;;;;;5026279;28;20040;-74
2023/07/13 11:17:31;;;;;;;5.95;2.38;;;;;;;;;;5021608;28;20041;-75
2023/07/13 11:20:17;;;;;;;2.88;2.20;;;;;;;;;;5024204;28;20030;-74
2023/07/13 11:22:47;;;;;;;4.03;2.70;;;;;;;;;;5014085;28;20037;-75
2023/07/13 11:25:30;;;;;;;4.15;2.47;;;;;;;;;;5022520;28;20060;-75
2023/07/13 11:28:02;;;;;;;3.65;2.42;;;;;;;;;;5025752;28;20037;-75
2023/07/13 11:30:29;;;;;;;3.25;2.20;;;;;;;;;;5023384;28;20041;-74
2023/07/13 11:33:07;;;;;;;3.25;2.30;;;;;;;;;;5024977;28;20041;-75
2023/07/13 11:35:35;;;;;;;5.78;2.42;;;;;;;;;;5024201;28;20021;-75
2023/07/13 11:38:02;;;;;;;2.67;2.30;;;;;;;;;;5023350;28;20053;-73
2023/07/13 11:40:29;;;;;;;3.53;2.50;;;;;;;;;;5027311;28;20643;-78
2023/07/13 11:43:02;;;;;;;2.97;2.40;;;;;;;;;;5026258;28;20574;-74
2023/07/13 11:45:28;;;;;;;2.88;2.58;;;;;;;;;;5025492;28;20037;-74
2023/07/13 11:48:00;;;;;;;2.47;2.20;;;;;;;;;;5017917;28;20448;-77
2023/07/13 11:50:26;;;;;;;5.90;2.88;;;;;;;;;;5022722;28;20033;-75
2023/07/13 11:52:54;;;;;;;2.85;2.22;;;;;;;;;;5027045;28;20099;-75
2023/07/13 11:55:21;;;;;;;3.83;2.40;;;;;;;;;;5022478;28;20104;-74
2023/07/13 11:58:08;;;;;;;3.63;2.33;;;;;;;;;;5023516;28;20022;-76
2023/07/13 12:00:34;;;;;;;3.97;2.40;;;;;;;;;;5018195;28;20086;-74
2023/07/13 12:03:02;;;;;;;4.07;2.40;;;;;;;;;;5019024;28;20025;-75
2023/07/13 12:05:30;;;;;;;5.80;2.45;;;;;;;;;;5020725;28;20080;-78
2023/07/13 12:07:56;;;;;;;4.10;2.90;;;;;;;;;;5024622;28;20531;-75
2023/07/13 12:10:29;;;;;;;3.65;2.70;;;;;;;;;;5025624;28;20087;-76
2023/07/13 12:12:56;;;;;;;3.65;2.63;;;;;;;;;;5023837;28;20017;-75
2023/07/13 12:15:24;;;;;;;6.32;2.40;;;;;;;;;;5024095;28;20036;-75
2023/07/13 12:17:50;;;;;;;2.80;2.20;;;;;;;;;;5017582;28;20502;-74
2023/07/13 12:20:28;;;;;;;3.35;2.35;;;;;;;;;;5019453;28;20041;-74
2023/07/13 12:23:06;;;;;;;4.75;2.45;;;;;;;;;;5031232;28;20128;-74
2023/07/13 12:25:33;;;;;;;4.38;2.53;;;;;;;;;;5034934;28;20432;-76
2023/07/13 12:27:59;;;;;;;2.72;2.38;;;;;;;;;;5031196;28;20021;-77
2023/07/13 12:30:30;;;;;;;4.35;2.30;;;;;;;;;;5020566;28;20037;-78
2023/07/13 12:32:57;;;;;;;3.38;2.53;;;;;;;;;;5022325;28;20017;-77
2023/07/13 12:35:24;;;;;;;4.93;2.70;;;;;;;;;;5015332;28;20090;-77
2023/07/13 12:37:52;;;;;;;3.47;2.25;;;;;;;;;;5024254;28;20131;-77
2023/07/13 12:40:20;;;;;;;4.10;2.40;;;;;;;;;;5023903;28;20064;-77
2023/07/13 12:42:48;;;;;;;4.07;2.50;;;;;;;;;;5032059;28;20063;-77
2023/07/13 12:45:25;;;;;;;4.00;2.55;;;;;;;;;;5022739;28;20144;-77
2023/07/13 12:47:54;;;;;;;5.57;2.70;;;;;;;;;;5026592;28;20037;-77
2023/07/13 12:50:22;;;;;;;3.55;2.53;;;;;;;;;;5030366;28;20064;-76
2023/07/13 12:52:53;;;;;;;3.55;2.85;;;;;;;;;;5030124;28;20030;-77
2023/07/13 12:55:20;;;;;;;3.85;2.70;;;;;;;;;;5043473;28;20052;-78
2023/07/13 12:57:49;;;;;;;4.22;2.60;;;;;;;;;;5044376;28;20052;-77
2023/07/13 13:00:32;;;;;;;4.35;2.65;;;;;;;;;;5040076;28;20041;-78
2023/07/13 13:03:03;;;;;;;3.45;2.20;;;;;;;;;;5035120;28;20397;-77
2023/07/13 13:05:30;;;;;;;3.00;2.33;;;;;;;;;;5020114;28;20503;-76
2023/07/13 13:07:56;;;;;;;3.10;2.40;;;;;;;;;;5028421;28;20049;-76
2023/07/13 13:10:22;;;;;;;3.42;2.28;;;;;;;;;;5028273;28;20554;-76
2023/07/13 13:12:48;;;;;;;3.92;2.45;;;;;;;;;;5027093;28;20021;-76
2023/07/13 13:15:16;;;;;;;2.83;2.35;;;;;;;;;;5023960;28;20109;-76
2023/07/13 13:17:42;;;;;;;6.13;2.95;;;;;;;;;;5023255;28;20147;-78
2023/07/13 13:20:19;;;;;;;4.00;2.40;;;;;;;;;;5022971;28;20087;-77
2023/07/13 13:22:45;;;;;;;2.40;2.20;;;;;;;;;;5030191;28;20037;-77
2023/07/13 13:25:12;;;;;;;4.00;2.40;;;;;;;;;;5024914;28;20144;-77
2023/07/13 13:27:40;;;;;;;3.25;2.53;;;;;;;;;;5023876;28;20457;-76
2023/07/13 13:30:12;;;;;;;4.95;2.83;;;;;;;;;;5023308;28;20486;-77
2023/07/13 13:32:39;;;;;;;3.50;2.50;;;;;;;;;;5022261;28;20418;-77
2023/07/13 13:35:06;;;;;;;4.22;2.80;;;;;;;;;;5035797;28;20055;-77
2023/07/13 13:37:32;;;;;;;4.05;2.42;;;;;;;;;;5021786;28;20031;-76
2023/07/13 13:39:58;;;;;;;2.60;2.30;;;;;;;;;;5020168;28;20033;-76
2023/07/13 13:42:26;;;;;;;4.00;2.20;;;;;;;;;;5022925;28;20364;-76
2023/07/13 13:44:53;;;;;;;2.80;2.47;;;;;;;;;;5025370;28;20734;-77
2023/07/13 13:47:32;;;;;;;5.18;2.60;;;;;;;;;;5022285;28;20484;-77
2023/07/13 13:50:00;;;;;;;3.75;2.33;;;;;;;;;;5024359;28;20041;-74
2023/07/13 13:52:26;;;;;;;3.92;2.45;;;;;;;;;;5022394;28;20029;-77
2023/07/13 13:54:55;;;;;;;5.20;2.58;;;;;;;;;;5020641;28;20031;-75
2023/07/13 13:57:23;;;;;;;3.22;2.47;;;;;;;;;;5020613;28;20041;-75
2023/07/13 13:59:49;;;;;;;4.20;2.60;;;;;;;;;;5016444;28;20017;-78
2023/07/13 14:02:31;;;;;;;3.78;2.25;;;;;;;;;;5020949;28;20025;-75
2023/07/13 14:05:02;;;;;;;5.97;2.53;;;;;;;;;;5027038;28;20081;-76
2023/07/13 14:07:29;;;;;;;3.72;2.53;;;;;;;;;;5037381;28;20052;-75
2023/07/13 14:09:59;;;;;;;5.93;2.45;;;;;;;;;;5029793;28;20121;-75
2023/07/13 14:12:28;;;;;;;4.30;2.80;;;;;;;;;;5026541;28;20310;-75
2023/07/13 14:14:56;;;;;;;5.75;2.22;;;;;;;;;;5019930;28;20109;-79
2023/07/13 14:17:26;;;;;;;2.42;2.08;;;;;;;;;;5028432;28;20119;-74
2023/07/13 14:19:56;;;;;;;3.47;2.30;;;;;;;;;;5032821;28;20052;-74
2023/07/13 14:22:23;;;;;;;4.40;2.20;;;;;;;;;;5024740;28;20045;-74
2023/07/13 14:24:50;;;;;;;4.88;2.30;;;;;;;;;;5020419;28;20035;-75
2023/07/13 14:27:16;;;;;;;3.70;2.20;;;;;;;;;;5028116;28;20079;-75
2023/07/13 14:29:42;;;;;;;3.55;2.13;;;;;;;;;;5032151;28;20032;-75
2023/07/13 14:32:12;;;;;;;3.17;2.20;;;;;;;;;;5026028;28;20152;-75
2023/07/13 14:34:39;;;;;;;5.10;2.35;;;;;;;;;;5018607;28;20556;-75
2023/07/13 14:37:05;;;;;;;2.97;2.00;;;;;;;;;;5026413;28;20037;-74
2023/07/13 14:39:32;;;;;;;3.15;2.17;;;;;;;;;;5041928;28;20585;-74
2023/07/13 14:41:59;;;;;;;2.13;1.92;;;;;;;;;;5031591;28;20029;-74
2023/07/13 14:44:26;;;;;;;2.58;1.83;;;;;;;;;;5026713;28;20033;-73
2023/07/13 14:46:52;;;;;;;3.15;1.90;;;;;;;;;;5029382;28;20029;-73
2023/07/13 14:49:26;;;;;;;2.78;1.98;;;;;;;;;;5028294;28;20036;-74